sensor_id;sensor_type;location;lat;lon;timestamp;P1;durP1;ratioP1;P2;durP2;ratioP2
18776;SDS011;9517;51.174;4.160;2022-11-15T00:02:26;58.67;;;30.93;;
18776;SDS011;9517;51.174;4.160;2022-11-15T00:04:55;56.30;;;31.20;;
18776;SDS011;9517;51.174;4.160;2022-11-15T00:07:22;53.63;;;29.70;;
18776;SDS011;9517;51.174;4.160;2022-11-15T00:09:49;60.23;;;30.77;;
18776;SDS011;9517;51.174;4.160;2022-11-15T00:12:16;54.60;;;30.67;;
18776;SDS011;9517;51.174;4.160;2022-11-15T00:14:43;53.87;;;28.37;;
18776;SDS011;9517;51.174;4.160;2022-11-15T00:17:10;53.63;;;29.07;;
18776;SDS011;9517;51.174;4.160;2022-11-15T00:19:37;50.17;;;27.13;;
18776;SDS011;9517;51.174;4.160;2022-11-15T00:22:05;50.20;;;28.17;;
18776;SDS011;9517;51.174;4.160;2022-11-15T00:24:32;45.93;;;27.50;;
18776;SDS011;9517;51.174;4.160;2022-11-15T00:26:59;47.33;;;27.20;;
18776;SDS011;9517;51.174;4.160;2022-11-15T00:29:26;46.73;;;27.53;;
18776;SDS011;9517;51.174;4.160;2022-11-15T00:31:53;47.73;;;25.77;;
18776;SDS011;9517;51.174;4.160;2022-11-15T00:34:20;46.23;;;25.83;;
18776;SDS011;9517;51.174;4.160;2022-11-15T00:36:47;48.23;;;26.67;;
18776;SDS011;9517;51.174;4.160;2022-11-15T00:39:16;41.43;;;25.30;;
18776;SDS011;9517;51.174;4.160;2022-11-15T00:41:43;49.10;;;26.57;;
18776;SDS011;9517;51.174;4.160;2022-11-15T00:44:10;45.53;;;26.23;;
18776;SDS011;9517;51.174;4.160;2022-11-15T00:46:37;42.80;;;25.40;;
18776;SDS011;9517;51.174;4.160;2022-11-15T00:49:04;45.73;;;25.03;;
18776;SDS011;9517;51.174;4.160;2022-11-15T00:51:31;45.60;;;25.63;;
18776;SDS011;9517;51.174;4.160;2022-11-15T00:53:58;43.10;;;24.77;;
18776;SDS011;9517;51.174;4.160;2022-11-15T00:56:26;44.87;;;23.87;;
18776;SDS011;9517;51.174;4.160;2022-11-15T00:58:53;40.17;;;23.97;;
18776;SDS011;9517;51.174;4.160;2022-11-15T01:01:20;40.50;;;24.57;;
18776;SDS011;9517;51.174;4.160;2022-11-15T01:03:48;39.70;;;24.23;;
18776;SDS011;9517;51.174;4.160;2022-11-15T01:06:15;45.67;;;24.07;;
18776;SDS011;9517;51.174;4.160;2022-11-15T01:08:42;39.00;;;24.40;;
18776;SDS011;9517;51.174;4.160;2022-11-15T01:11:09;43.20;;;25.10;;
18776;SDS011;9517;51.174;4.160;2022-11-15T01:13:39;41.80;;;24.80;;
18776;SDS011;9517;51.174;4.160;2022-11-15T01:16:07;47.90;;;26.43;;
18776;SDS011;9517;51.174;4.160;2022-11-15T01:18:36;44.07;;;24.63;;
18776;SDS011;9517;51.174;4.160;2022-11-15T01:21:07;41.17;;;24.67;;
18776;SDS011;9517;51.174;4.160;2022-11-15T01:23:35;44.33;;;25.87;;
18776;SDS011;9517;51.174;4.160;2022-11-15T01:26:03;40.83;;;26.67;;
18776;SDS011;9517;51.174;4.160;2022-11-15T01:28:32;43.60;;;26.63;;
18776;SDS011;9517;51.174;4.160;2022-11-15T01:31:02;45.47;;;25.73;;
18776;SDS011;9517;51.174;4.160;2022-11-15T01:33:33;44.40;;;24.93;;
18776;SDS011;9517;51.174;4.160;2022-11-15T01:36:03;46.63;;;26.13;;
18776;SDS011;9517;51.174;4.160;2022-11-15T01:38:31;42.90;;;25.97;;
18776;SDS011;9517;51.174;4.160;2022-11-15T01:40:59;45.73;;;26.70;;
18776;SDS011;9517;51.174;4.160;2022-11-15T01:43:27;45.73;;;25.67;;
18776;SDS011;9517;51.174;4.160;2022-11-15T01:45:56;46.43;;;26.13;;
18776;SDS011;9517;51.174;4.160;2022-11-15T01:48:29;48.20;;;26.27;;
18776;SDS011;9517;51.174;4.160;2022-11-15T01:50:58;41.57;;;22.67;;
18776;SDS011;9517;51.174;4.160;2022-11-15T01:53:28;45.23;;;26.13;;
18776;SDS011;9517;51.174;4.160;2022-11-15T01:55:58;42.33;;;23.83;;
18776;SDS011;9517;51.174;4.160;2022-11-15T01:58:30;44.03;;;24.57;;
18776;SDS011;9517;51.174;4.160;2022-11-15T02:00:58;43.67;;;24.10;;
18776;SDS011;9517;51.174;4.160;2022-11-15T02:06:12;39.83;;;23.87;;
18776;SDS011;9517;51.174;4.160;2022-11-15T02:08:40;42.63;;;24.47;;
18776;SDS011;9517;51.174;4.160;2022-11-15T02:11:08;38.00;;;23.93;;
18776;SDS011;9517;51.174;4.160;2022-11-15T02:13:35;40.50;;;22.83;;
18776;SDS011;9517;51.174;4.160;2022-11-15T02:16:05;41.53;;;24.93;;
18776;SDS011;9517;51.174;4.160;2022-11-15T02:18:41;38.63;;;22.93;;
18776;SDS011;9517;51.174;4.160;2022-11-15T02:21:17;41.77;;;23.77;;
18776;SDS011;9517;51.174;4.160;2022-11-15T02:24:03;42.20;;;23.47;;
18776;SDS011;9517;51.174;4.160;2022-11-15T02:27:07;40.13;;;21.93;;
18776;SDS011;9517;51.174;4.160;2022-11-15T02:29:59;38.73;;;22.47;;
18776;SDS011;9517;51.174;4.160;2022-11-15T02:32:34;42.60;;;23.23;;
18776;SDS011;9517;51.174;4.160;2022-11-15T02:35:11;40.63;;;23.37;;
18776;SDS011;9517;51.174;4.160;2022-11-15T02:37:45;38.13;;;21.37;;
18776;SDS011;9517;51.174;4.160;2022-11-15T02:40:21;38.67;;;22.23;;
18776;SDS011;9517;51.174;4.160;2022-11-15T02:42:57;42.67;;;22.37;;
18776;SDS011;9517;51.174;4.160;2022-11-15T02:45:47;39.20;;;21.37;;
18776;SDS011;9517;51.174;4.160;2022-11-15T02:48:21;40.87;;;22.20;;
18776;SDS011;9517;51.174;4.160;2022-11-15T02:50:50;39.93;;;22.57;;
18776;SDS011;9517;51.174;4.160;2022-11-15T02:53:20;42.83;;;21.90;;
18776;SDS011;9517;51.174;4.160;2022-11-15T02:55:50;39.83;;;22.90;;
18776;SDS011;9517;51.174;4.160;2022-11-15T02:58:23;35.90;;;20.10;;
18776;SDS011;9517;51.174;4.160;2022-11-15T03:01:10;40.33;;;20.30;;
18776;SDS011;9517;51.174;4.160;2022-11-15T03:03:52;38.97;;;21.10;;
18776;SDS011;9517;51.174;4.160;2022-11-15T03:06:28;38.47;;;21.13;;
18776;SDS011;9517;51.174;4.160;2022-11-15T03:09:05;39.93;;;21.03;;
18776;SDS011;9517;51.174;4.160;2022-11-15T03:11:37;39.07;;;21.87;;
18776;SDS011;9517;51.174;4.160;2022-11-15T03:14:10;39.07;;;19.23;;
18776;SDS011;9517;51.174;4.160;2022-11-15T03:16:46;42.40;;;20.57;;
18776;SDS011;9517;51.174;4.160;2022-11-15T03:19:20;37.40;;;20.73;;
18776;SDS011;9517;51.174;4.160;2022-11-15T03:21:52;35.93;;;20.23;;
18776;SDS011;9517;51.174;4.160;2022-11-15T03:24:22;41.00;;;20.67;;
18776;SDS011;9517;51.174;4.160;2022-11-15T03:26:51;34.00;;;20.03;;
18776;SDS011;9517;51.174;4.160;2022-11-15T03:29:22;39.43;;;20.53;;
18776;SDS011;9517;51.174;4.160;2022-11-15T03:31:54;33.13;;;19.20;;
18776;SDS011;9517;51.174;4.160;2022-11-15T03:34:29;34.60;;;19.40;;
18776;SDS011;9517;51.174;4.160;2022-11-15T03:37:00;34.37;;;18.87;;
18776;SDS011;9517;51.174;4.160;2022-11-15T03:39:28;35.17;;;20.17;;
18776;SDS011;9517;51.174;4.160;2022-11-15T03:41:57;33.97;;;19.00;;
18776;SDS011;9517;51.174;4.160;2022-11-15T03:44:36;33.83;;;18.90;;
18776;SDS011;9517;51.174;4.160;2022-11-15T03:47:09;35.87;;;18.23;;
18776;SDS011;9517;51.174;4.160;2022-11-15T03:49:44;33.57;;;18.00;;
18776;SDS011;9517;51.174;4.160;2022-11-15T03:52:16;35.13;;;18.40;;
18776;SDS011;9517;51.174;4.160;2022-11-15T03:54:49;31.20;;;16.90;;
18776;SDS011;9517;51.174;4.160;2022-11-15T03:57:17;34.97;;;17.20;;
18776;SDS011;9517;51.174;4.160;2022-11-15T03:59:44;29.87;;;16.07;;
18776;SDS011;9517;51.174;4.160;2022-11-15T04:02:11;28.97;;;15.90;;
18776;SDS011;9517;51.174;4.160;2022-11-15T04:04:38;33.23;;;17.23;;
18776;SDS011;9517;51.174;4.160;2022-11-15T04:07:07;34.70;;;15.67;;
18776;SDS011;9517;51.174;4.160;2022-11-15T04:09:55;36.10;;;15.47;;
18776;SDS011;9517;51.174;4.160;2022-11-15T04:12:32;29.37;;;15.07;;
18776;SDS011;9517;51.174;4.160;2022-11-15T04:15:01;30.17;;;14.37;;
18776;SDS011;9517;51.174;4.160;2022-11-15T04:17:37;29.47;;;15.67;;
18776;SDS011;9517;51.174;4.160;2022-11-15T04:20:06;31.63;;;15.23;;
18776;SDS011;9517;51.174;4.160;2022-11-15T04:22:55;31.43;;;15.30;;
18776;SDS011;9517;51.174;4.160;2022-11-15T04:25:40;29.07;;;15.07;;
18776;SDS011;9517;51.174;4.160;2022-11-15T04:28:07;31.87;;;15.37;;
18776;SDS011;9517;51.174;4.160;2022-11-15T04:30:35;33.93;;;15.00;;
18776;SDS011;9517;51.174;4.160;2022-11-15T04:33:02;27.17;;;14.53;;
18776;SDS011;9517;51.174;4.160;2022-11-15T04:35:29;31.57;;;14.80;;
18776;SDS011;9517;51.174;4.160;2022-11-15T04:37:58;28.40;;;14.87;;
18776;SDS011;9517;51.174;4.160;2022-11-15T04:40:25;31.17;;;14.80;;
18776;SDS011;9517;51.174;4.160;2022-11-15T04:42:52;27.07;;;13.93;;
18776;SDS011;9517;51.174;4.160;2022-11-15T04:45:19;26.17;;;13.87;;
18776;SDS011;9517;51.174;4.160;2022-11-15T04:47:47;29.20;;;14.57;;
18776;SDS011;9517;51.174;4.160;2022-11-15T04:50:14;27.23;;;13.30;;
18776;SDS011;9517;51.174;4.160;2022-11-15T04:52:43;27.10;;;13.93;;
18776;SDS011;9517;51.174;4.160;2022-11-15T04:55:17;29.67;;;13.60;;
18776;SDS011;9517;51.174;4.160;2022-11-15T04:57:44;26.27;;;13.33;;
18776;SDS011;9517;51.174;4.160;2022-11-15T05:00:12;29.57;;;13.27;;
18776;SDS011;9517;51.174;4.160;2022-11-15T05:02:44;28.10;;;12.57;;
18776;SDS011;9517;51.174;4.160;2022-11-15T05:05:32;27.00;;;12.53;;
18776;SDS011;9517;51.174;4.160;2022-11-15T05:07:59;26.93;;;11.47;;
18776;SDS011;9517;51.174;4.160;2022-11-15T05:10:28;25.63;;;11.50;;
18776;SDS011;9517;51.174;4.160;2022-11-15T05:12:55;23.13;;;11.83;;
18776;SDS011;9517;51.174;4.160;2022-11-15T05:15:22;24.20;;;10.93;;
18776;SDS011;9517;51.174;4.160;2022-11-15T05:17:49;28.13;;;11.57;;
18776;SDS011;9517;51.174;4.160;2022-11-15T05:20:16;27.63;;;11.00;;
18776;SDS011;9517;51.174;4.160;2022-11-15T05:22:44;27.13;;;11.13;;
18776;SDS011;9517;51.174;4.160;2022-11-15T05:25:11;25.57;;;10.93;;
18776;SDS011;9517;51.174;4.160;2022-11-15T05:27:47;25.80;;;10.17;;
18776;SDS011;9517;51.174;4.160;2022-11-15T05:30:18;22.80;;;10.60;;
18776;SDS011;9517;51.174;4.160;2022-11-15T05:32:46;22.27;;;11.07;;
18776;SDS011;9517;51.174;4.160;2022-11-15T05:35:15;26.27;;;10.17;;
18776;SDS011;9517;51.174;4.160;2022-11-15T05:37:49;23.50;;;11.07;;
18776;SDS011;9517;51.174;4.160;2022-11-15T05:40:16;27.47;;;10.93;;
18776;SDS011;9517;51.174;4.160;2022-11-15T05:42:45;24.77;;;11.87;;
18776;SDS011;9517;51.174;4.160;2022-11-15T05:45:15;20.50;;;9.40;;
18776;SDS011;9517;51.174;4.160;2022-11-15T05:47:44;26.67;;;10.40;;
18776;SDS011;9517;51.174;4.160;2022-11-15T05:50:13;24.27;;;10.10;;
18776;SDS011;9517;51.174;4.160;2022-11-15T05:52:48;29.23;;;10.70;;
18776;SDS011;9517;51.174;4.160;2022-11-15T05:55:25;22.63;;;9.57;;
18776;SDS011;9517;51.174;4.160;2022-11-15T05:57:55;19.87;;;9.93;;
18776;SDS011;9517;51.174;4.160;2022-11-15T06:00:22;21.70;;;9.63;;
18776;SDS011;9517;51.174;4.160;2022-11-15T06:02:50;24.73;;;10.37;;
18776;SDS011;9517;51.174;4.160;2022-11-15T06:05:21;24.17;;;9.37;;
18776;SDS011;9517;51.174;4.160;2022-11-15T06:07:52;27.13;;;10.10;;
18776;SDS011;9517;51.174;4.160;2022-11-15T06:10:24;21.40;;;9.17;;
18776;SDS011;9517;51.174;4.160;2022-11-15T06:12:57;25.90;;;8.83;;
18776;SDS011;9517;51.174;4.160;2022-11-15T06:15:25;24.37;;;9.00;;
18776;SDS011;9517;51.174;4.160;2022-11-15T06:17:55;34.37;;;10.77;;
18776;SDS011;9517;51.174;4.160;2022-11-15T06:20:26;19.23;;;8.50;;
18776;SDS011;9517;51.174;4.160;2022-11-15T06:22:56;26.77;;;9.10;;
18776;SDS011;9517;51.174;4.160;2022-11-15T06:25:25;22.03;;;7.73;;
18776;SDS011;9517;51.174;4.160;2022-11-15T06:27:53;21.00;;;8.97;;
18776;SDS011;9517;51.174;4.160;2022-11-15T06:30:35;21.10;;;8.30;;
18776;SDS011;9517;51.174;4.160;2022-11-15T06:33:37;25.57;;;9.80;;
18776;SDS011;9517;51.174;4.160;2022-11-15T06:39:01;19.80;;;7.87;;
18776;SDS011;9517;51.174;4.160;2022-11-15T06:41:28;24.97;;;8.50;;
18776;SDS011;9517;51.174;4.160;2022-11-15T06:44:17;21.60;;;8.40;;
18776;SDS011;9517;51.174;4.160;2022-11-15T06:46:49;23.87;;;8.10;;
18776;SDS011;9517;51.174;4.160;2022-11-15T06:49:38;20.20;;;8.00;;
18776;SDS011;9517;51.174;4.160;2022-11-15T06:52:36;19.00;;;7.93;;
18776;SDS011;9517;51.174;4.160;2022-11-15T06:55:19;16.97;;;7.23;;
18776;SDS011;9517;51.174;4.160;2022-11-15T06:57:47;21.63;;;8.80;;
18776;SDS011;9517;51.174;4.160;2022-11-15T07:00:22;17.67;;;8.87;;
18776;SDS011;9517;51.174;4.160;2022-11-15T07:03:01;22.67;;;9.40;;
18776;SDS011;9517;51.174;4.160;2022-11-15T07:05:31;20.87;;;8.23;;
18776;SDS011;9517;51.174;4.160;2022-11-15T07:08:02;22.43;;;8.30;;
18776;SDS011;9517;51.174;4.160;2022-11-15T07:10:31;15.10;;;8.07;;
18776;SDS011;9517;51.174;4.160;2022-11-15T07:13:00;14.60;;;7.43;;
18776;SDS011;9517;51.174;4.160;2022-11-15T07:15:42;21.90;;;8.30;;
18776;SDS011;9517;51.174;4.160;2022-11-15T07:18:10;20.93;;;7.73;;
18776;SDS011;9517;51.174;4.160;2022-11-15T07:20:38;20.87;;;7.80;;
18776;SDS011;9517;51.174;4.160;2022-11-15T07:23:05;19.13;;;7.43;;
18776;SDS011;9517;51.174;4.160;2022-11-15T07:25:35;23.67;;;8.00;;
18776;SDS011;9517;51.174;4.160;2022-11-15T07:28:02;23.70;;;8.40;;
18776;SDS011;9517;51.174;4.160;2022-11-15T07:30:30;20.87;;;8.10;;
18776;SDS011;9517;51.174;4.160;2022-11-15T07:33:00;19.63;;;8.10;;
18776;SDS011;9517;51.174;4.160;2022-11-15T07:35:30;21.13;;;8.17;;
18776;SDS011;9517;51.174;4.160;2022-11-15T07:37:58;18.53;;;7.80;;
18776;SDS011;9517;51.174;4.160;2022-11-15T07:40:26;21.00;;;8.30;;
18776;SDS011;9517;51.174;4.160;2022-11-15T07:43:02;24.87;;;9.17;;
18776;SDS011;9517;51.174;4.160;2022-11-15T07:45:39;20.87;;;8.83;;
18776;SDS011;9517;51.174;4.160;2022-11-15T07:48:15;26.47;;;9.90;;
18776;SDS011;9517;51.174;4.160;2022-11-15T07:50:43;27.63;;;10.40;;
18776;SDS011;9517;51.174;4.160;2022-11-15T07:53:12;26.00;;;10.00;;
18776;SDS011;9517;51.174;4.160;2022-11-15T07:55:42;26.23;;;11.53;;
18776;SDS011;9517;51.174;4.160;2022-11-15T07:58:11;27.30;;;10.13;;
18776;SDS011;9517;51.174;4.160;2022-11-15T08:00:39;25.67;;;10.30;;
18776;SDS011;9517;51.174;4.160;2022-11-15T08:03:08;20.57;;;9.93;;
18776;SDS011;9517;51.174;4.160;2022-11-15T08:05:42;20.43;;;9.30;;
18776;SDS011;9517;51.174;4.160;2022-11-15T08:08:19;22.60;;;10.90;;
18776;SDS011;9517;51.174;4.160;2022-11-15T08:10:49;21.77;;;9.53;;
18776;SDS011;9517;51.174;4.160;2022-11-15T08:13:22;20.53;;;8.90;;
18776;SDS011;9517;51.174;4.160;2022-11-15T08:15:56;19.80;;;8.60;;
18776;SDS011;9517;51.174;4.160;2022-11-15T08:18:32;20.10;;;8.93;;
18776;SDS011;9517;51.174;4.160;2022-11-15T08:21:01;18.40;;;7.90;;
18776;SDS011;9517;51.174;4.160;2022-11-15T08:23:31;18.40;;;6.80;;
18776;SDS011;9517;51.174;4.160;2022-11-15T08:25:59;19.63;;;6.97;;
18776;SDS011;9517;51.174;4.160;2022-11-15T08:28:29;15.77;;;6.03;;
18776;SDS011;9517;51.174;4.160;2022-11-15T08:30:57;17.60;;;5.30;;
18776;SDS011;9517;51.174;4.160;2022-11-15T08:33:26;11.57;;;5.67;;
18776;SDS011;9517;51.174;4.160;2022-11-15T08:35:57;16.00;;;4.73;;
18776;SDS011;9517;51.174;4.160;2022-11-15T08:38:28;16.93;;;4.87;;
18776;SDS011;9517;51.174;4.160;2022-11-15T08:41:03;14.30;;;4.77;;
18776;SDS011;9517;51.174;4.160;2022-11-15T08:43:44;13.40;;;4.23;;
18776;SDS011;9517;51.174;4.160;2022-11-15T08:46:27;13.10;;;4.63;;
18776;SDS011;9517;51.174;4.160;2022-11-15T08:49:00;15.10;;;4.97;;
18776;SDS011;9517;51.174;4.160;2022-11-15T08:51:40;18.47;;;4.63;;
18776;SDS011;9517;51.174;4.160;2022-11-15T08:54:17;13.17;;;3.93;;
18776;SDS011;9517;51.174;4.160;2022-11-15T08:56:55;16.13;;;4.13;;
18776;SDS011;9517;51.174;4.160;2022-11-15T08:59:25;16.30;;;3.70;;
18776;SDS011;9517;51.174;4.160;2022-11-15T09:04:50;14.67;;;3.47;;
18776;SDS011;9517;51.174;4.160;2022-11-15T09:10:22;7.73;;;2.40;;
18776;SDS011;9517;51.174;4.160;2022-11-15T09:13:03;15.90;;;3.27;;
18776;SDS011;9517;51.174;4.160;2022-11-15T09:15:34;10.10;;;2.50;;
18776;SDS011;9517;51.174;4.160;2022-11-15T09:18:41;15.77;;;2.93;;
18776;SDS011;9517;51.174;4.160;2022-11-15T09:21:26;13.13;;;2.70;;
18776;SDS011;9517;51.174;4.160;2022-11-15T09:24:04;14.43;;;2.67;;
18776;SDS011;9517;51.174;4.160;2022-11-15T09:26:51;13.20;;;2.50;;
18776;SDS011;9517;51.174;4.160;2022-11-15T09:29:34;9.20;;;2.53;;
18776;SDS011;9517;51.174;4.160;2022-11-15T18:21:16;11.67;;;6.13;;
18776;SDS011;9517;51.174;4.160;2022-11-15T21:27:15;16.10;;;8.20;;
18776;SDS011;9517;51.174;4.160;2022-11-15T21:29:43;17.20;;;8.53;;
18776;SDS011;9517;51.174;4.160;2022-11-15T21:32:13;15.33;;;8.50;;
18776;SDS011;9517;51.174;4.160;2022-11-15T21:34:40;16.70;;;8.90;;
18776;SDS011;9517;51.174;4.160;2022-11-15T21:37:07;15.03;;;9.17;;
18776;SDS011;9517;51.174;4.160;2022-11-15T21:39:35;17.87;;;9.77;;
18776;SDS011;9517;51.174;4.160;2022-11-15T21:42:02;16.73;;;9.67;;
18776;SDS011;9517;51.174;4.160;2022-11-15T21:44:34;16.47;;;9.10;;
18776;SDS011;9517;51.174;4.160;2022-11-15T21:47:01;15.97;;;9.53;;
18776;SDS011;9517;51.174;4.160;2022-11-15T21:49:28;16.33;;;9.43;;
18776;SDS011;9517;51.174;4.160;2022-11-15T21:51:55;17.53;;;9.50;;
18776;SDS011;9517;51.174;4.160;2022-11-15T21:54:22;18.20;;;8.77;;
18776;SDS011;9517;51.174;4.160;2022-11-15T21:56:49;18.87;;;10.10;;
18776;SDS011;9517;51.174;4.160;2022-11-15T21:59:16;17.60;;;9.60;;
18776;SDS011;9517;51.174;4.160;2022-11-15T22:01:45;18.93;;;9.90;;
18776;SDS011;9517;51.174;4.160;2022-11-15T22:04:29;17.27;;;9.70;;
18776;SDS011;9517;51.174;4.160;2022-11-15T22:06:56;17.60;;;9.57;;
18776;SDS011;9517;51.174;4.160;2022-11-15T22:09:23;17.17;;;10.10;;
18776;SDS011;9517;51.174;4.160;2022-11-15T22:11:50;18.77;;;9.67;;
18776;SDS011;9517;51.174;4.160;2022-11-15T22:14:17;17.13;;;9.67;;
18776;SDS011;9517;51.174;4.160;2022-11-15T22:16:45;17.97;;;10.13;;
18776;SDS011;9517;51.174;4.160;2022-11-15T22:19:12;19.43;;;10.03;;
18776;SDS011;9517;51.174;4.160;2022-11-15T22:21:39;16.80;;;9.50;;
18776;SDS011;9517;51.174;4.160;2022-11-15T22:24:07;16.73;;;9.83;;
18776;SDS011;9517;51.174;4.160;2022-11-15T22:26:34;18.17;;;10.10;;
18776;SDS011;9517;51.174;4.160;2022-11-15T22:29:01;16.40;;;10.20;;
18776;SDS011;9517;51.174;4.160;2022-11-15T22:31:28;16.33;;;9.93;;
18776;SDS011;9517;51.174;4.160;2022-11-15T22:33:56;19.90;;;10.93;;
18776;SDS011;9517;51.174;4.160;2022-11-15T22:36:23;18.77;;;11.17;;
18776;SDS011;9517;51.174;4.160;2022-11-15T22:38:51;21.73;;;10.80;;
18776;SDS011;9517;51.174;4.160;2022-11-15T22:41:18;18.80;;;11.33;;
18776;SDS011;9517;51.174;4.160;2022-11-15T22:43:45;21.43;;;12.03;;
18776;SDS011;9517;51.174;4.160;2022-11-15T22:46:12;19.60;;;10.83;;
18776;SDS011;9517;51.174;4.160;2022-11-15T22:48:40;18.93;;;10.60;;
18776;SDS011;9517;51.174;4.160;2022-11-15T22:51:08;20.37;;;11.37;;
18776;SDS011;9517;51.174;4.160;2022-11-15T22:53:35;16.97;;;10.10;;
18776;SDS011;9517;51.174;4.160;2022-11-15T22:56:03;18.93;;;10.87;;
18776;SDS011;9517;51.174;4.160;2022-11-15T22:58:31;19.33;;;10.33;;
18776;SDS011;9517;51.174;4.160;2022-11-15T23:00:59;19.60;;;11.33;;
18776;SDS011;9517;51.174;4.160;2022-11-15T23:03:29;17.87;;;10.80;;
18776;SDS011;9517;51.174;4.160;2022-11-15T23:05:59;20.20;;;11.43;;
18776;SDS011;9517;51.174;4.160;2022-11-15T23:08:29;20.17;;;11.20;;
18776;SDS011;9517;51.174;4.160;2022-11-15T23:10:57;20.53;;;10.67;;
18776;SDS011;9517;51.174;4.160;2022-11-15T23:13:45;15.53;;;9.27;;
18776;SDS011;9517;51.174;4.160;2022-11-15T23:16:15;18.33;;;9.60;;
18776;SDS011;9517;51.174;4.160;2022-11-15T23:18:47;15.73;;;9.23;;
18776;SDS011;9517;51.174;4.160;2022-11-15T23:21:15;16.77;;;8.83;;
18776;SDS011;9517;51.174;4.160;2022-11-15T23:24:07;17.07;;;9.13;;
18776;SDS011;9517;51.174;4.160;2022-11-15T23:26:34;15.93;;;8.33;;
18776;SDS011;9517;51.174;4.160;2022-11-15T23:29:01;15.27;;;8.00;;
18776;SDS011;9517;51.174;4.160;2022-11-15T23:31:28;14.87;;;8.40;;
18776;SDS011;9517;51.174;4.160;2022-11-15T23:34:13;17.43;;;9.60;;
18776;SDS011;9517;51.174;4.160;2022-11-15T23:36:40;15.57;;;8.60;;
18776;SDS011;9517;51.174;4.160;2022-11-15T23:39:09;17.07;;;9.07;;
18776;SDS011;9517;51.174;4.160;2022-11-15T23:41:36;16.40;;;8.33;;
18776;SDS011;9517;51.174;4.160;2022-11-15T23:44:03;16.53;;;8.43;;
18776;SDS011;9517;51.174;4.160;2022-11-15T23:46:30;14.50;;;8.33;;
18776;SDS011;9517;51.174;4.160;2022-11-15T23:48:57;18.07;;;8.20;;
18776;SDS011;9517;51.174;4.160;2022-11-15T23:51:25;14.13;;;8.20;;
18776;SDS011;9517;51.174;4.160;2022-11-15T23:53:52;16.20;;;8.20;;
18776;SDS011;9517;51.174;4.160;2022-11-15T23:56:23;14.13;;;7.37;;
18776;SDS011;9517;51.174;4.160;2022-11-15T23:58:51;16.10;;;8.47;;
